Time;durP1;ratioP1;P1;durP2;ratioP2;P2;SDS_P1;SDS_P2;PMS_P1;PMS_P2;Temp;Humidity;BMP_temperature;BMP_pressure;BME280_temperature;BME280_humidity;BME280_pressure;Samples;Min_cycle;Max_cycle;Signal;HPM_P1;HPM_P2
2023/01/06 00:01:19;;;;;;;3.07;2.00;;;;;;;8.79;nan;101743.00;6258251;28;20234;-74
2023/01/06 00:04:39;;;;;;;3.07;2.77;;;;;;;8.91;nan;101732.38;6280791;28;20239;-74
2023/01/06 00:08:00;;;;;;;2.53;2.00;;;;;;;8.75;nan;101732.56;6263818;28;20247;-74
2023/01/06 00:11:21;;;;;;;2.90;2.40;;;;;;;9.09;nan;101723.91;6262282;28;20235;-73
2023/01/06 00:14:43;;;;;;;2.90;2.63;;;;;;;9.21;nan;101720.38;6279990;28;20243;-73
2023/01/06 00:18:05;;;;;;;6.53;3.27;;;;;;;9.05;nan;101721.53;6263381;28;20235;-73
2023/01/06 00:21:26;;;;;;;4.90;2.07;;;;;;;8.75;nan;101725.34;6264962;28;20766;-73
2023/01/06 00:24:47;;;;;;;2.70;2.43;;;;;;;8.79;nan;101724.19;6277569;28;20235;-73
2023/01/06 00:28:08;;;;;;;2.37;2.17;;;;;;;8.68;nan;101715.97;6264630;28;20227;-73
2023/01/06 00:31:28;;;;;;;9.73;2.70;;;;;;;8.83;nan;101708.69;6245971;28;20227;-72
2023/01/06 00:34:51;;;;;;;3.40;2.30;;;;;;;8.73;nan;101700.41;6265174;28;20628;-74
2023/01/06 00:38:12;;;;;;;7.40;3.80;;;;;;;8.31;nan;101692.53;6247397;28;20223;-74
2023/01/06 00:45:11;;;;;;;6.53;5.10;;;;;;;8.37;nan;101685.88;6273989;28;20235;-74
2023/01/06 00:48:31;;;;;;;8.93;4.90;;;;;;;8.45;nan;101676.34;6248879;28;20223;-72
2023/01/06 00:51:54;;;;;;;3.90;3.53;;;;;;;8.51;nan;101675.94;6248982;28;20226;-73
2023/01/06 00:55:14;;;;;;;5.30;3.63;;;;;;;8.42;nan;101665.81;6264418;28;20680;-73
2023/01/06 00:58:36;;;;;;;5.90;5.40;;;;;;;8.48;nan;101668.09;6253484;28;20223;-73
2023/01/06 01:01:58;;;;;;;10.47;4.33;;;;;;;8.65;nan;101661.56;6263115;28;20310;-74
2023/01/06 01:05:19;;;;;;;10.67;4.07;;;;;;;8.24;nan;101656.25;6262827;28;20254;-74
2023/01/06 01:08:41;;;;;;;6.00;3.47;;;;;;;8.42;nan;101654.22;6251010;28;20227;-74
2023/01/06 01:12:11;;;;;;;4.10;3.63;;;;;;;8.29;nan;101648.78;6263797;28;20227;-73
2023/01/06 01:15:33;;;;;;;6.63;3.87;;;;;;;8.53;nan;101655.19;6257581;28;20227;-74
2023/01/06 01:18:54;;;;;;;10.53;5.27;;;;;;;8.32;nan;101656.66;6258328;28;20235;-75
2023/01/06 01:22:15;;;;;;;7.03;3.77;;;;;;;8.16;nan;101644.28;6264308;28;20224;-75
2023/01/06 01:25:39;;;;;;;4.83;3.77;;;;;;;8.23;nan;101635.75;6265716;28;20223;-75
2023/01/06 01:29:00;;;;;;;4.73;3.47;;;;;;;8.32;nan;101634.31;6250846;28;20484;-75
2023/01/06 01:32:21;;;;;;;4.80;3.53;;;;;;;8.46;nan;101627.03;6262717;28;20219;-74
2023/01/06 01:35:42;;;;;;;7.20;3.77;;;;;;;8.55;nan;101623.69;6262257;28;20239;-74
2023/01/06 01:39:03;;;;;;;8.33;5.10;;;;;;;8.56;nan;101619.19;6264288;28;20632;-73
2023/01/06 01:42:25;;;;;;;9.27;3.20;;;;;;;8.73;nan;101616.22;6265702;28;20553;-73
2023/01/06 01:45:50;;;;;;;5.00;3.10;;;;;;;8.37;nan;101600.78;6273158;28;20810;-73
2023/01/06 01:49:16;;;;;;;5.00;3.63;;;;;;;8.76;nan;101607.94;6263858;28;20235;-73
2023/01/06 01:52:37;;;;;;;5.13;3.83;;;;;;;9.12;nan;101599.09;6249511;28;20226;-73
2023/01/06 01:56:02;;;;;;;6.07;2.87;;;;;;;8.83;nan;101602.03;6267852;28;20647;-74
2023/01/06 01:59:28;;;;;;;4.10;3.57;;;;;;;8.52;nan;101604.25;6248934;28;20239;-74
2023/01/06 02:02:50;;;;;;;5.10;2.50;;;;;;;9.03;nan;101589.88;6256808;28;20227;-74
2023/01/06 02:06:14;;;;;;;6.30;3.63;;;;;;;8.80;nan;101587.94;6254936;28;20620;-74
2023/01/06 02:09:41;;;;;;;3.07;2.77;;;;;;;9.17;nan;101586.19;6255844;28;20242;-73
2023/01/06 02:13:02;;;;;;;4.50;4.10;;;;;;;8.53;nan;101585.31;6246353;28;20222;-74
2023/01/06 02:16:35;;;;;;;3.43;2.77;;;;;;;8.51;nan;101576.50;6251521;28;22150;-74
2023/01/06 02:20:24;;;;;;;5.00;3.60;;;;;;;8.65;nan;101583.63;6275072;28;20354;-73
2023/01/06 02:24:17;;;;;;;8.03;3.33;;;;;;;8.83;nan;101576.97;6249535;28;20232;-74
2023/01/06 02:28:28;;;;;;;6.13;4.20;;;;;;;8.67;nan;101571.81;6263248;28;20255;-74
2023/01/06 02:32:00;;;;;;;14.07;4.10;;;;;;;8.40;nan;101564.78;6223793;28;20496;-74
2023/01/06 02:35:39;;;;;;;5.17;4.27;;;;;;;8.61;nan;101566.00;6262762;28;20246;-74
2023/01/06 02:39:14;;;;;;;4.07;3.67;;;;;;;8.81;nan;101562.78;6235679;28;20596;-74
2023/01/06 02:42:43;;;;;;;3.00;2.47;;;;;;;9.02;nan;101547.81;6244120;28;20235;-74
2023/01/06 02:46:11;;;;;;;5.30;4.83;;;;;;;8.57;nan;101538.47;6252899;28;20234;-74
2023/01/06 02:49:44;;;;;;;6.20;2.50;;;;;;;8.96;nan;101524.03;6261030;28;20557;-73
2023/01/06 02:53:11;;;;;;;3.30;3.07;;;;;;;8.98;nan;101526.63;6250122;28;20239;-74
2023/01/06 02:56:38;;;;;;;2.57;2.17;;;;;;;9.17;nan;101519.81;6245908;28;20355;-76
2023/01/06 03:00:06;;;;;;;3.50;3.20;;;;;;;9.29;nan;101513.53;6255748;28;20242;-73
2023/01/06 03:03:32;;;;;;;5.50;3.10;;;;;;;9.10;nan;101501.53;6258203;28;20230;-74
2023/01/06 03:07:00;;;;;;;4.70;2.93;;;;;;;8.77;nan;101507.50;6246358;28;20305;-73
2023/01/06 03:10:25;;;;;;;4.70;3.57;;;;;;;8.84;nan;101488.13;6257095;28;20230;-74
2023/01/06 03:13:50;;;;;;;4.67;4.03;;;;;;;8.83;nan;101485.56;6246873;28;20247;-74
2023/01/06 03:17:12;;;;;;;3.87;3.13;;;;;;;8.88;nan;101486.09;6245196;28;20304;-74
2023/01/06 03:20:34;;;;;;;4.47;3.33;;;;;;;8.90;nan;101484.16;6262187;28;20268;-73
2023/01/06 03:23:57;;;;;;;3.47;2.83;;;;;;;9.18;nan;101488.41;6260241;28;20259;-73
2023/01/06 03:27:21;;;;;;;5.93;4.07;;;;;;;9.17;nan;101479.47;6245917;28;20243;-74
2023/01/06 03:30:48;;;;;;;4.43;3.40;;;;;;;9.15;nan;101477.84;6260105;28;20222;-73
2023/01/06 03:34:17;;;;;;;6.67;4.07;;;;;;;9.54;nan;101470.38;6260898;28;20934;-74
2023/01/06 03:37:50;;;;;;;3.90;3.40;;;;;;;9.43;nan;101466.75;6261523;28;20231;-74
2023/01/06 03:41:22;;;;;;;7.40;4.60;;;;;;;9.68;nan;101460.41;6250074;28;20223;-74
2023/01/06 03:44:47;;;;;;;6.40;4.70;;;;;;;9.37;nan;101453.75;6258673;28;20574;-74
2023/01/06 03:48:19;;;;;;;5.43;5.00;;;;;;;9.62;nan;101459.88;6259363;28;20239;-74
2023/01/06 03:51:47;;;;;;;7.50;4.93;;;;;;;9.16;nan;101453.53;6248453;28;20226;-74
2023/01/06 03:55:16;;;;;;;5.33;4.43;;;;;;;9.38;nan;101445.59;6274385;28;20226;-73
2023/01/06 03:58:40;;;;;;;5.43;4.00;;;;;;;9.35;nan;101445.81;6247067;28;20222;-74
2023/01/06 04:02:04;;;;;;;5.53;4.30;;;;;;;9.47;nan;101430.59;6244707;28;22455;-75
2023/01/06 04:05:28;;;;;;;6.40;4.37;;;;;;;9.82;nan;101422.50;6260241;28;20326;-73
2023/01/06 04:08:51;;;;;;;8.07;5.10;;;;;;;9.79;nan;101426.28;6245343;28;20666;-74
2023/01/06 04:15:52;;;;;;;5.13;4.37;;;;;;;10.03;nan;101412.78;6254615;28;20321;-73
2023/01/06 04:19:12;;;;;;;5.87;4.50;;;;;;;9.85;nan;101424.94;6274444;28;20231;-74
2023/01/06 04:22:34;;;;;;;9.07;4.37;;;;;;;9.99;nan;101405.91;6259428;28;20262;-74
2023/01/06 04:25:55;;;;;;;5.17;4.57;;;;;;;9.87;nan;101391.56;6253074;28;20235;-74
2023/01/06 04:29:25;;;;;;;4.87;4.47;;;;;;;9.75;nan;101392.50;6259194;28;20226;-74
2023/01/06 04:32:50;;;;;;;6.53;4.70;;;;;;;9.90;nan;101387.78;6222355;28;20235;-73
2023/01/06 04:36:11;;;;;;;8.70;4.57;;;;;;;10.34;nan;101385.16;6251599;28;20259;-73
2023/01/06 04:39:35;;;;;;;11.43;5.33;;;;;;;10.37;nan;101382.22;6256760;28;20231;-74
2023/01/06 04:43:05;;;;;;;6.03;4.10;;;;;;;10.30;nan;101365.69;6258209;28;20546;-74
2023/01/06 04:46:26;;;;;;;6.53;4.77;;;;;;;10.19;nan;101360.28;6261702;28;20242;-74
2023/01/06 04:49:48;;;;;;;9.70;5.17;;;;;;;10.29;nan;101358.59;6272209;28;20808;-76
2023/01/06 04:53:11;;;;;;;6.63;5.30;;;;;;;10.45;nan;101356.34;6263140;28;20226;-74
2023/01/06 04:56:32;;;;;;;8.50;5.83;;;;;;;10.55;nan;101350.25;6262122;28;20226;-74
2023/01/06 04:59:53;;;;;;;7.07;6.00;;;;;;;10.28;nan;101354.16;6267388;28;20361;-75
2023/01/06 05:03:14;;;;;;;12.13;7.57;;;;;;;10.43;nan;101349.38;6261388;28;20219;-75
2023/01/06 05:06:38;;;;;;;8.43;5.00;;;;;;;10.45;nan;101340.19;6265787;28;23352;-74
2023/01/06 05:09:59;;;;;;;9.07;6.07;;;;;;;10.40;nan;101338.84;6267088;28;20231;-74
2023/01/06 05:13:22;;;;;;;8.77;5.63;;;;;;;10.37;nan;101342.66;6265554;28;20227;-74
2023/01/06 05:16:43;;;;;;;9.70;6.63;;;;;;;10.57;nan;101337.50;6268017;28;20228;-74
2023/01/06 05:20:04;;;;;;;6.33;5.00;;;;;;;10.54;nan;101326.94;6275295;28;20223;-75
2023/01/06 05:23:27;;;;;;;8.17;5.20;;;;;;;10.51;nan;101313.72;6266293;28;20243;-74
2023/01/06 05:26:48;;;;;;;6.53;5.83;;;;;;;10.74;nan;101316.25;6269396;28;20235;-74
2023/01/06 05:30:10;;;;;;;7.57;6.53;;;;;;;10.84;nan;101314.50;6274017;28;20294;-75
2023/01/06 05:33:31;;;;;;;8.67;5.50;;;;;;;10.58;nan;101320.31;6265213;28;20223;-74
2023/01/06 05:36:52;;;;;;;8.90;6.53;;;;;;;10.44;nan;101319.63;6259884;28;20501;-74
2023/01/06 05:40:15;;;;;;;9.87;6.00;;;;;;;10.44;nan;101316.94;6280393;28;20318;-74
2023/01/06 05:43:37;;;;;;;8.10;3.93;;;;;;;10.33;nan;101307.97;6266309;28;20239;-75
2023/01/06 05:46:57;;;;;;;9.63;7.83;;;;;;;10.37;nan;101321.09;6270004;28;20235;-75
2023/01/06 05:50:18;;;;;;;7.63;5.53;;;;;;;10.39;nan;101307.47;6263844;28;20310;-74
2023/01/06 05:53:41;;;;;;;5.10;4.60;;;;;;;10.45;nan;101307.84;6264180;28;20596;-75
2023/01/06 05:57:03;;;;;;;6.37;5.77;;;;;;;10.51;nan;101306.50;6260462;28;20231;-74
2023/01/06 06:00:24;;;;;;;7.90;5.13;;;;;;;10.48;nan;101314.84;6266765;28;20227;-75
2023/01/06 06:03:45;;;;;;;6.97;6.00;;;;;;;10.62;nan;101317.25;6256105;28;20616;-74
2023/01/06 06:07:06;;;;;;;11.30;5.40;;;;;;;10.65;nan;101325.09;6263617;28;21253;-74
2023/01/06 06:10:27;;;;;;;6.33;5.43;;;;;;;10.58;nan;101329.28;6269188;28;21285;-74
2023/01/06 06:13:51;;;;;;;7.17;6.00;;;;;;;10.59;nan;101312.13;6263472;28;20227;-74
2023/01/06 06:17:12;;;;;;;6.70;5.17;;;;;;;10.66;nan;101299.84;6261491;28;20640;-74
2023/01/06 06:20:33;;;;;;;8.03;4.87;;;;;;;10.75;nan;101292.81;6270081;28;20227;-74
2023/01/06 06:23:56;;;;;;;9.83;5.87;;;;;;;10.83;nan;101295.75;6262802;28;20314;-75
2023/01/06 06:27:16;;;;;;;8.23;7.40;;;;;;;10.69;nan;101291.50;6258858;28;20239;-74
2023/01/06 06:30:39;;;;;;;12.50;6.33;;;;;;;10.76;nan;101300.81;6267926;28;20636;-75
2023/01/06 06:34:02;;;;;;;6.30;5.60;;;;;;;10.63;nan;101293.84;6247597;28;20247;-73
2023/01/06 06:37:22;;;;;;;6.10;5.17;;;;;;;10.65;nan;101298.13;6253816;28;20551;-75
2023/01/06 06:40:44;;;;;;;5.60;4.83;;;;;;;10.71;nan;101269.81;6270884;28;20872;-74
2023/01/06 06:44:04;;;;;;;6.70;5.00;;;;;;;10.68;nan;101270.91;6246602;28;20224;-72
2023/01/06 06:47:27;;;;;;;6.97;5.10;;;;;;;10.73;nan;101279.47;6254509;28;20643;-75
2023/01/06 06:50:56;;;;;;;8.93;6.33;;;;;;;10.73;nan;101294.78;6274377;28;20599;-74
2023/01/06 06:54:17;;;;;;;8.27;6.70;;;;;;;10.78;nan;101285.38;6268419;28;20227;-74
2023/01/06 06:57:38;;;;;;;6.00;4.87;;;;;;;10.83;nan;101276.88;6261053;28;20235;-72
2023/01/06 07:01:02;;;;;;;6.67;5.83;;;;;;;10.81;nan;101278.84;6251344;28;20641;-75
2023/01/06 07:04:24;;;;;;;9.47;5.90;;;;;;;10.80;nan;101269.91;6272825;28;21210;-74
2023/01/06 07:07:45;;;;;;;6.03;5.40;;;;;;;10.84;nan;101260.56;6255253;28;20235;-75
2023/01/06 07:11:06;;;;;;;4.83;4.33;;;;;;;10.74;nan;101256.94;6263990;28;20624;-75
2023/01/06 07:14:27;;;;;;;7.70;6.10;;;;;;;10.72;nan;101252.66;6272248;28;20227;-74
2023/01/06 07:17:48;;;;;;;4.90;4.40;;;;;;;10.77;nan;101236.94;6262242;28;20539;-75
2023/01/06 07:21:10;;;;;;;9.53;6.20;;;;;;;10.78;nan;101241.34;6270256;28;20529;-75
2023/01/06 07:24:31;;;;;;;5.47;4.30;;;;;;;10.74;nan;101234.50;6273602;28;20231;-73
2023/01/06 07:27:54;;;;;;;5.37;4.03;;;;;;;10.75;nan;101231.66;6262494;28;20242;-73
2023/01/06 07:31:15;;;;;;;5.43;4.67;;;;;;;10.71;nan;101219.44;6255296;28;20223;-72
2023/01/06 07:34:35;;;;;;;5.10;4.23;;;;;;;10.83;nan;101213.00;6268870;28;20262;-72
2023/01/06 07:38:04;;;;;;;5.13;4.23;;;;;;;10.92;nan;101214.94;6267978;28;20227;-70
2023/01/06 07:41:25;;;;;;;7.47;4.80;;;;;;;10.91;nan;101218.59;6278653;28;20877;-71
2023/01/06 07:44:46;;;;;;;4.73;4.23;;;;;;;10.97;nan;101207.28;6263693;28;20234;-69
2023/01/06 07:48:08;;;;;;;6.77;5.53;;;;;;;10.99;nan;101210.72;6257042;28;20231;-72
2023/01/06 07:51:29;;;;;;;5.83;4.33;;;;;;;10.76;nan;101194.78;6261603;28;20244;-73
2023/01/06 07:54:52;;;;;;;6.60;5.93;;;;;;;10.93;nan;101183.44;6268377;28;20604;-73
2023/01/06 07:58:12;;;;;;;7.23;5.33;;;;;;;10.69;nan;101198.97;6265559;28;20224;-74
2023/01/06 08:01:33;;;;;;;8.57;6.87;;;;;;;10.80;nan;101180.91;6243878;28;20621;-74
2023/01/06 08:04:54;;;;;;;9.00;4.93;;;;;;;10.63;nan;101194.09;6269265;28;20227;-74
2023/01/06 08:08:15;;;;;;;9.77;4.87;;;;;;;10.90;nan;101168.34;6267702;28;20227;-73
2023/01/06 08:11:37;;;;;;;4.87;4.27;;;;;;;10.78;nan;101176.63;6256571;28;20638;-73
2023/01/06 08:14:58;;;;;;;3.93;3.53;;;;;;;10.74;nan;101176.03;6277995;28;20259;-70
2023/01/06 08:18:19;;;;;;;5.57;3.87;;;;;;;10.74;nan;101167.09;6253023;28;20231;-73
2023/01/06 08:21:40;;;;;;;5.37;4.87;;;;;;;10.73;nan;101179.72;6257497;28;20219;-74
2023/01/06 08:25:01;;;;;;;3.67;3.37;;;;;;;10.74;nan;101161.69;6274539;28;20242;-74
2023/01/06 08:28:24;;;;;;;3.80;3.50;;;;;;;10.67;nan;101187.47;6269633;28;20227;-71
2023/01/06 08:31:45;;;;;;;4.53;3.50;;;;;;;10.77;nan;101188.38;6256555;28;20349;-75
2023/01/06 08:35:06;;;;;;;3.33;2.97;;;;;;;10.73;nan;101186.94;6271516;28;20231;-70
2023/01/06 08:38:28;;;;;;;3.43;3.13;;;;;;;10.91;nan;101180.00;6259547;28;20660;-73
2023/01/06 08:41:50;;;;;;;4.17;3.33;;;;;;;10.83;nan;101174.38;6261712;28;20246;-71
2023/01/06 08:45:12;;;;;;;5.00;3.57;;;;;;;10.90;nan;101175.59;6274344;28;20655;-73
2023/01/06 08:48:35;;;;;;;3.00;2.77;;;;;;;10.82;nan;101183.47;6262187;28;20235;-72
2023/01/06 08:51:56;;;;;;;3.67;2.10;;;;;;;10.88;nan;101181.13;6266996;28;20246;-73
2023/01/06 08:55:17;;;;;;;2.80;2.20;;;;;;;10.81;nan;101174.53;6277037;28;20223;-72
2023/01/06 08:58:38;;;;;;;2.97;2.77;;;;;;;10.80;nan;101186.31;6265978;28;20738;-70
2023/01/06 09:02:01;;;;;;;2.87;2.40;;;;;;;10.81;nan;101176.34;6257631;28;21323;-71
2023/01/06 09:05:21;;;;;;;2.00;1.90;;;;;;;10.75;nan;101168.78;6272684;28;20231;-70
2023/01/06 09:08:42;;;;;;;3.97;3.67;;;;;;;10.77;nan;101173.06;6267108;28;20313;-73
2023/01/06 09:12:03;;;;;;;2.93;2.53;;;;;;;10.88;nan;101189.22;6242818;28;20223;-72
2023/01/06 09:15:24;;;;;;;3.70;2.20;;;;;;;10.87;nan;101173.13;6275174;28;21077;-73
2023/01/06 09:18:48;;;;;;;3.43;3.13;;;;;;;10.88;nan;101175.72;6260733;28;20599;-73
2023/01/06 09:22:09;;;;;;;2.47;2.27;;;;;;;10.89;nan;101180.09;6260827;28;20223;-73
2023/01/06 09:25:30;;;;;;;2.83;2.63;;;;;;;10.77;nan;101208.13;6276068;28;20227;-73
2023/01/06 09:28:51;;;;;;;3.33;2.30;;;;;;;10.83;nan;101188.72;6253618;28;20624;-75
2023/01/06 09:32:12;;;;;;;2.13;1.93;;;;;;;10.86;nan;101182.22;6257146;28;20231;-74
2023/01/06 09:35:34;;;;;;;3.37;3.03;;;;;;;10.88;nan;101191.03;6274781;28;20239;-72
2023/01/06 09:38:55;;;;;;;3.17;2.47;;;;;;;10.83;nan;101188.72;6248194;28;20239;-75
2023/01/06 09:42:32;;;;;;;3.27;2.23;;;;;;;10.96;nan;101181.31;6259232;28;20712;-75
2023/01/06 09:45:59;;;;;;;2.53;2.27;;;;;;;10.82;nan;101181.63;6277005;28;20243;-75
2023/01/06 09:49:27;;;;;;;2.47;2.33;;;;;;;10.89;nan;101181.97;6279406;28;20223;-77
2023/01/06 09:52:55;;;;;;;6.20;2.87;;;;;;;10.77;nan;101193.78;6273234;28;20231;-74
2023/01/06 09:56:19;;;;;;;6.13;1.97;;;;;;;10.73;nan;101206.69;6274368;28;20713;-74
2023/01/06 09:59:48;;;;;;;2.00;1.10;;;;;;;10.86;nan;101193.00;6213558;28;20226;-74
2023/01/06 10:03:13;;;;;;;1.80;1.70;;;;;;;10.88;nan;101191.03;6230455;28;20238;-70
2023/01/06 10:06:39;;;;;;;2.13;2.03;;;;;;;10.87;nan;101208.19;6258619;28;20231;-72
2023/01/06 10:10:14;;;;;;;1.80;1.70;;;;;;;10.88;nan;101182.94;6266699;28;20223;-73
2023/01/06 10:13:52;;;;;;;1.77;1.53;;;;;;;11.01;nan;101175.53;6259906;28;20302;-72
2023/01/06 10:17:41;;;;;;;3.63;1.50;;;;;;;11.14;nan;101179.72;6266713;28;20809;-73
2023/01/06 10:21:10;;;;;;;5.73;1.90;;;;;;;10.98;nan;101189.25;6267542;28;20227;-81
2023/01/06 10:24:47;;;;;;;2.43;2.30;;;;;;;11.07;nan;101172.31;6275007;28;20226;-73
2023/01/06 10:28:16;;;;;;;1.17;1.17;;;;;;;10.96;nan;101184.00;6263035;28;20640;-77
2023/01/06 10:31:39;;;;;;;1.83;1.50;;;;;;;11.12;nan;101197.03;6249982;28;20235;-74
2023/01/06 10:35:02;;;;;;;2.17;2.03;;;;;;;10.93;nan;101189.66;6285650;28;20227;-76
2023/01/06 10:38:28;;;;;;;2.20;1.57;;;;;;;11.06;nan;101201.13;6261291;28;20223;-75
2023/01/06 10:42:54;;;;;;;3.23;2.10;;;;;;;11.04;nan;101208.47;6263930;28;20307;-74
2023/01/06 10:45:42;;;;;;;2.53;1.70;;;;;;;10.95;nan;101198.47;6270124;28;20227;-71
2023/01/06 10:49:05;;;;;;;1.97;1.87;;;;;;;10.97;nan;101196.50;6276453;28;20215;-71
2023/01/06 10:52:27;;;;;;;1.83;1.73;;;;;;;10.87;nan;101209.06;6270857;28;20231;-74
2023/01/06 10:55:52;;;;;;;1.90;1.80;;;;;;;11.01;nan;101200.63;6274486;28;20239;-73
2023/01/06 10:59:13;;;;;;;1.80;1.70;;;;;;;11.20;nan;101191.84;6283222;28;20330;-79
2023/01/06 11:02:35;;;;;;;2.97;2.27;;;;;;;11.19;nan;101203.63;6255783;28;20231;-74
2023/01/06 11:06:07;;;;;;;1.50;1.40;;;;;;;11.23;nan;101203.22;6273846;28;20262;-75
2023/01/06 11:09:33;;;;;;;1.73;1.60;;;;;;;11.41;nan;101210.72;6273691;28;20215;-73
2023/01/06 11:12:56;;;;;;;1.70;1.60;;;;;;;11.21;nan;101220.53;6272308;28;20239;-75
2023/01/06 11:16:22;;;;;;;1.83;1.73;;;;;;;11.30;nan;101243.19;6266286;28;20239;-75
2023/01/06 11:19:45;;;;;;;2.40;1.63;;;;;;;11.10;nan;101251.13;6278409;28;20227;-74
2023/01/06 11:23:18;;;;;;;1.27;1.10;;;;;;;11.28;nan;101251.41;6259619;28;20241;-73
2023/01/06 11:26:45;;;;;;;1.00;0.97;;;;;;;11.44;nan;101259.03;6268230;28;20230;-74
2023/01/06 11:30:25;;;;;;;3.17;1.00;;;;;;;11.50;nan;101253.97;6276341;28;20223;-76
2023/01/06 11:33:50;;;;;;;0.73;0.73;;;;;;;11.68;nan;101263.19;6272979;28;20859;-75
2023/01/06 11:37:12;;;;;;;1.10;1.10;;;;;;;12.68;nan;101257.69;6271968;28;20246;-75
2023/01/06 11:40:36;;;;;;;0.70;0.70;;;;;;;12.73;nan;101258.16;6272924;28;20241;-71
2023/01/06 11:44:07;;;;;;;0.73;0.70;;;;;;;12.17;nan;101262.44;6252363;28;20235;-72
2023/01/06 11:47:28;;;;;;;1.63;1.53;;;;;;;15.17;nan;101246.84;6249006;28;20223;-72
2023/01/06 11:50:51;;;;;;;5.10;0.67;;;;;;;17.97;nan;101257.13;6273878;28;20230;-71
2023/01/06 11:54:31;;;;;;;0.47;0.40;;;;;;;18.93;nan;101261.34;6253510;28;20334;-69
2023/01/06 11:57:59;;;;;;;0.75;0.45;;;;;;;19.90;nan;101272.34;6270876;28;20616;-71
2023/01/06 12:01:27;;;;;;;0.75;0.75;;;;;;;19.39;nan;101273.16;6243286;28;20526;-72
2023/01/06 12:04:51;;;;;;;1.15;0.60;;;;;;;18.37;nan;101289.78;6271188;28;20305;-73
2023/01/06 12:08:19;;;;;;;0.95;0.95;;;;;;;19.14;nan;101284.25;6267704;28;20790;-72
2023/01/06 12:11:46;;;;;;;0.30;0.30;;;;;;;19.53;nan;101300.56;6259874;28;20316;-69
2023/01/06 12:15:12;;;;;;;2.25;0.70;;;;;;;21.16;nan;101306.75;6279500;28;20226;-67
2023/01/06 12:18:35;;;;;;;3.85;1.17;;;;;;;22.33;nan;101303.34;6272300;28;20234;-69
2023/01/06 12:21:58;;;;;;;0.68;0.57;;;;;;;18.36;nan;101318.09;6273747;28;22579;-69
2023/01/06 12:25:23;;;;;;;1.02;1.02;;;;;;;18.75;nan;101320.88;6289353;28;20504;-70
2023/01/06 12:28:48;;;;;;;1.65;1.08;;;;;;;19.57;nan;101306.50;6261085;28;20237;-71
2023/01/06 12:32:18;;;;;;;1.20;1.15;;;;;;;21.34;nan;101318.16;6263047;28;20222;-71
2023/01/06 12:35:41;;;;;;;0.47;0.47;;;;;;;21.43;nan;101319.69;6286188;28;20231;-69
2023/01/06 12:39:05;;;;;;;0.50;0.50;;;;;;;19.20;nan;101320.09;6278963;28;20226;-69
2023/01/06 12:42:35;;;;;;;1.98;0.55;;;;;;;16.79;nan;101330.34;6273035;28;20901;-69
2023/01/06 12:46:02;;;;;;;1.27;1.17;;;;;;;16.55;nan;101338.38;6279170;28;20230;-69
2023/01/06 12:49:30;;;;;;;2.08;1.73;;;;;;;15.82;nan;101347.94;6290358;28;20231;-71
2023/01/06 12:52:54;;;;;;;1.73;1.40;;;;;;;14.68;nan;101350.53;6267311;28;20832;-69
2023/01/06 12:56:28;;;;;;;0.97;0.97;;;;;;;14.32;nan;101349.53;6273517;28;20232;-70
2023/01/06 13:00:02;;;;;;;0.70;0.50;;;;;;;13.35;nan;101343.56;6264268;28;20232;-69
2023/01/06 13:03:52;;;;;;;0.60;0.60;;;;;;;13.39;nan;101351.22;6259516;28;20227;-69
2023/01/06 13:07:25;;;;;;;1.70;0.67;;;;;;;13.55;nan;101356.09;6256064;28;20238;-69
2023/01/06 13:10:55;;;;;;;0.93;0.93;;;;;;;13.07;nan;101357.91;6267039;28;20286;-69
2023/01/06 13:14:23;;;;;;;1.53;1.03;;;;;;;12.97;nan;101357.03;6266688;28;20603;-70
2023/01/06 13:17:50;;;;;;;6.33;1.40;;;;;;;12.77;nan;101365.09;6255502;28;20505;-70
2023/01/06 13:21:15;;;;;;;0.70;0.70;;;;;;;12.56;nan;101353.50;6256378;28;20231;-70
2023/01/06 13:24:47;;;;;;;3.00;1.20;;;;;;;12.62;nan;101363.75;6263180;28;20227;-70
2023/01/06 13:28:17;;;;;;;0.70;0.57;;;;;;;12.28;nan;101364.19;6252810;28;20655;-68
2023/01/06 13:32:04;;;;;;;1.70;1.20;;;;;;;12.35;nan;101359.97;6259132;28;20230;-70
2023/01/06 13:36:04;;;;;;;2.67;1.73;;;;;;;12.49;nan;101354.19;6275328;28;20235;-68
2023/01/06 13:39:32;;;;;;;1.00;0.90;;;;;;;12.77;nan;101358.81;6181130;28;20232;-69
2023/01/06 13:42:57;;;;;;;4.80;1.23;;;;;;;13.59;nan;101357.50;6178247;28;20242;-71
2023/01/06 13:46:21;;;;;;;2.80;0.80;;;;;;;13.17;nan;101375.88;6253957;28;21361;-71
2023/01/06 13:49:43;;;;;;;1.17;1.03;;;;;;;13.04;nan;101374.44;6269264;28;20235;-70
2023/01/06 13:53:06;;;;;;;4.87;1.30;;;;;;;12.90;nan;101380.22;6259274;28;20548;-70
2023/01/06 13:56:30;;;;;;;1.17;1.00;;;;;;;12.42;nan;101383.63;6244755;28;20315;-77
2023/01/06 13:59:52;;;;;;;3.40;1.40;;;;;;;12.44;nan;101383.47;6263971;28;20231;-72
2023/01/06 14:03:24;;;;;;;2.60;1.50;;;;;;;12.31;nan;101393.66;6246602;28;20231;-76
2023/01/06 14:06:46;;;;;;;3.57;1.27;;;;;;;11.87;nan;101400.22;6249462;28;20235;-74
2023/01/06 14:10:30;;;;;;;2.73;1.03;;;;;;;11.89;nan;101398.25;6266488;28;20234;-73
2023/01/06 14:13:54;;;;;;;1.23;1.20;;;;;;;11.91;nan;101398.97;6266794;28;20569;-72
2023/01/06 14:17:29;;;;;;;1.63;1.33;;;;;;;11.79;nan;101410.81;6260799;28;20497;-72
2023/01/06 14:21:00;;;;;;;1.90;1.80;;;;;;;11.75;nan;101422.88;6264017;28;20231;-72
2023/01/06 14:24:27;;;;;;;1.10;1.00;;;;;;;11.49;nan;101424.19;6265199;28;21509;-75
2023/01/06 14:28:25;;;;;;;1.27;0.70;;;;;;;11.01;nan;101440.75;6253771;28;20231;-72
2023/01/06 14:31:47;;;;;;;2.60;1.97;;;;;;;11.57;nan;101435.22;6231190;28;20506;-69
2023/01/06 14:35:11;;;;;;;5.80;1.43;;;;;;;11.25;nan;101451.38;6240240;28;20280;-72
2023/01/06 14:38:41;;;;;;;1.67;0.97;;;;;;;11.20;nan;101462.53;6237089;28;20230;-71
2023/01/06 14:42:06;;;;;;;1.13;1.10;;;;;;;11.38;nan;101464.72;6247587;28;20230;-72
2023/01/06 14:45:29;;;;;;;1.33;1.30;;;;;;;11.34;nan;101465.97;6258636;28;20564;-71
2023/01/06 14:48:57;;;;;;;7.00;2.30;;;;;;;11.09;nan;101467.97;6249369;28;20243;-70
2023/01/06 14:52:22;;;;;;;5.47;1.90;;;;;;;11.31;nan;101466.19;6233517;28;20551;-70
2023/01/06 14:55:47;;;;;;;1.73;1.30;;;;;;;11.14;nan;101471.16;6226629;28;20227;-71
2023/01/06 14:59:14;;;;;;;4.97;2.97;;;;;;;11.26;nan;101458.50;6215578;28;20318;-72
2023/01/06 15:02:35;;;;;;;2.30;1.00;;;;;;;11.23;nan;101458.75;6235092;28;20232;-72
2023/01/06 15:06:11;;;;;;;3.37;1.40;;;;;;;10.84;nan;101457.47;6217226;28;20270;-71
2023/01/06 15:09:33;;;;;;;1.37;1.20;;;;;;;10.90;nan;101467.75;6231935;28;20227;-71
2023/01/06 15:12:56;;;;;;;3.10;1.33;;;;;;;10.82;nan;101462.13;6217478;28;20315;-71
2023/01/06 15:16:23;;;;;;;2.30;1.77;;;;;;;10.63;nan;101471.78;6220663;28;21036;-72
2023/01/06 15:19:46;;;;;;;5.27;1.93;;;;;;;10.63;nan;101478.06;6260949;28;20806;-72
2023/01/06 15:23:14;;;;;;;3.23;1.17;;;;;;;10.55;nan;101482.34;6248000;28;20684;-71
2023/01/06 15:26:36;;;;;;;1.23;1.00;;;;;;;10.62;nan;101497.06;6264946;28;20317;-72
2023/01/06 15:29:57;;;;;;;5.63;1.33;;;;;;;10.66;nan;101493.13;6279786;28;20246;-71
2023/01/06 15:33:20;;;;;;;2.10;1.67;;;;;;;10.52;nan;101486.13;6270771;28;20786;-71
2023/01/06 15:36:43;;;;;;;1.43;1.33;;;;;;;10.54;nan;101489.56;6270922;28;20250;-72
2023/01/06 15:40:07;;;;;;;2.90;2.40;;;;;;;10.65;nan;101497.66;6269743;28;20313;-72
2023/01/06 15:43:28;;;;;;;1.10;1.03;;;;;;;10.76;nan;101484.19;6265361;28;20238;-72
2023/01/06 15:46:52;;;;;;;3.73;1.60;;;;;;;10.32;nan;101479.63;6266724;28;20223;-72
2023/01/06 15:50:18;;;;;;;1.27;0.90;;;;;;;10.20;nan;101494.03;6279386;28;20235;-72
2023/01/06 15:53:39;;;;;;;1.67;1.37;;;;;;;10.49;nan;101493.59;6265176;28;20238;-71
2023/01/06 15:57:03;;;;;;;1.77;1.17;;;;;;;10.26;nan;101492.72;6263553;28;20227;-71
2023/01/06 16:00:27;;;;;;;4.63;1.07;;;;;;;10.33;nan;101493.94;6270711;28;20227;-71
2023/01/06 16:03:51;;;;;;;0.77;0.77;;;;;;;10.29;nan;101508.63;6242682;28;20223;-70
2023/01/06 16:07:32;;;;;;;1.77;1.10;;;;;;;10.36;nan;101494.56;6260275;28;20231;-72
2023/01/06 16:15:35;;;;;;;1.93;1.57;;;;;;;10.27;nan;101487.19;6273684;28;21947;-73
2023/01/06 16:18:57;;;;;;;1.50;1.40;;;;;;;10.09;nan;101493.13;6246576;28;20219;-73
2023/01/06 16:22:47;;;;;;;3.17;1.73;;;;;;;10.15;nan;101490.84;6261638;28;20219;-71
2023/01/06 16:26:14;;;;;;;2.90;1.83;;;;;;;10.03;nan;101496.28;6262939;28;20227;-72
2023/01/06 16:29:36;;;;;;;4.23;2.13;;;;;;;9.93;nan;101506.03;6277209;28;20239;-72
2023/01/06 16:33:00;;;;;;;4.97;2.00;;;;;;;9.90;nan;101504.44;6269586;28;20319;-73